Grant City, Missouri
Current Conditions -  °F | °C
As of 2:53 AM on Tuesday 21 Oct 2014 (Local Time) from KLWD Reporting Station
Clear Clear  
Wind Chill: 48°   Ceiling: Unl
Heat Index: 48°   Visibility: 10mi
Dew Point: 40°   Wind: 3mph
Humidity: 74%   Direction: 330°NNW
Pressure: 30.08"   Gusts: NA
Location:  40.49°N, 94.41°W
Report Text: KLWD 210753Z AUTO 33003KT 10SM CLR 09/04 A3008 RMK AO2 SLP186 T00890044
Loading
Personal Weather Stations






























Interactive Weather Map New forecast layout! Learn more

10-Day Weather Forecast

Advertisements
Track Severe Weather on mobile